Time;durP1;ratioP1;P1;durP2;ratioP2;P2;SDS_P1;SDS_P2;PMS_P1;PMS_P2;Temp;Humidity;BMP_temperature;BMP_pressure;BME280_temperature;BME280_humidity;BME280_pressure;Samples;Min_cycle;Max_cycle;Signal;HPM_P1;HPM_P2
2021/04/05 00:00:34;;;;;;;0.10;0.10;;;;;;;;;;5030713;28;20212;-74
2021/04/05 00:03:01;;;;;;;0.63;0.63;;;;;;;;;;5030588;28;20194;-74
2021/04/05 00:05:32;;;;;;;0.10;0.10;;;;;;;;;;5029310;28;20198;-74
2021/04/05 00:07:58;;;;;;;0.10;0.10;;;;;;;;;;5030583;28;20165;-74
2021/04/05 00:10:27;;;;;;;0.10;0.10;;;;;;;;;;5029449;28;20177;-74
2021/04/05 00:12:55;;;;;;;0.95;0.65;;;;;;;;;;5030476;28;20163;-74
2021/04/05 00:15:21;;;;;;;0.10;0.10;;;;;;;;;;5030406;28;20222;-74
2021/04/05 00:17:48;;;;;;;0.10;0.10;;;;;;;;;;5029122;28;20178;-74
2021/04/05 00:20:23;;;;;;;0.75;0.75;;;;;;;;;;5030357;28;20166;-74
2021/04/05 00:22:49;;;;;;;0.10;0.10;;;;;;;;;;5030220;28;20252;-74
2021/04/05 00:25:15;;;;;;;0.40;0.40;;;;;;;;;;5028909;28;20166;-75
2021/04/05 00:27:42;;;;;;;0.10;0.10;;;;;;;;;;5030295;28;20216;-74
2021/04/05 00:30:16;;;;;;;0.10;0.10;;;;;;;;;;5029016;28;20631;-74
2021/04/05 00:32:46;;;;;;;0.10;0.10;;;;;;;;;;5030136;28;20162;-74
2021/04/05 00:35:13;;;;;;;0.10;0.10;;;;;;;;;;5028686;28;20185;-74
2021/04/05 00:37:39;;;;;;;0.10;0.10;;;;;;;;;;5028818;28;20185;-74
2021/04/05 00:40:10;;;;;;;0.30;0.30;;;;;;;;;;5030134;28;20228;-74
2021/04/05 00:42:37;;;;;;;0.17;0.17;;;;;;;;;;5029950;28;20192;-74
2021/04/05 00:45:11;;;;;;;0.35;0.35;;;;;;;;;;5028781;28;20197;-73
2021/04/05 00:47:39;;;;;;;0.10;0.10;;;;;;;;;;5029829;28;20172;-73
2021/04/05 00:50:15;;;;;;;0.50;0.50;;;;;;;;;;5030848;28;20217;-73
2021/04/05 00:52:42;;;;;;;0.10;0.10;;;;;;;;;;5029912;28;20158;-74
2021/04/05 00:55:09;;;;;;;0.20;0.20;;;;;;;;;;5044886;28;20181;-74
2021/04/05 00:57:36;;;;;;;0.10;0.10;;;;;;;;;;5044374;28;20188;-73
2021/04/05 01:00:16;;;;;;;0.10;0.10;;;;;;;;;;5044807;28;20201;-74
2021/04/05 01:02:43;;;;;;;0.10;0.10;;;;;;;;;;5029541;28;20208;-74
2021/04/05 01:05:11;;;;;;;0.10;0.10;;;;;;;;;;5044717;28;20174;-74
2021/04/05 01:07:37;;;;;;;0.10;0.10;;;;;;;;;;5044811;28;20208;-74
2021/04/05 01:10:08;;;;;;;0.20;0.20;;;;;;;;;;5044872;28;20178;-74
2021/04/05 01:12:34;;;;;;;0.40;0.40;;;;;;;;;;5029435;28;20173;-73
2021/04/05 01:15:01;;;;;;;0.10;0.10;;;;;;;;;;5029519;28;20193;-73
2021/04/05 01:17:27;;;;;;;0.10;0.10;;;;;;;;;;5029433;28;20189;-74
2021/04/05 01:19:53;;;;;;;0.30;0.30;;;;;;;;;;5044780;28;20213;-73
2021/04/05 01:22:19;;;;;;;0.10;0.10;;;;;;;;;;5044671;28;20205;-73
2021/04/05 01:24:45;;;;;;;0.10;0.10;;;;;;;;;;5029432;28;20173;-74
2021/04/05 01:27:12;;;;;;;0.17;0.17;;;;;;;;;;5046064;28;20227;-74
2021/04/05 01:29:39;;;;;;;0.10;0.10;;;;;;;;;;5048874;28;20157;-73
2021/04/05 01:32:06;;;;;;;0.10;0.10;;;;;;;;;;5048587;28;20500;-73
2021/04/05 01:34:32;;;;;;;0.10;0.10;;;;;;;;;;5049069;28;20192;-74
2021/04/05 01:37:01;;;;;;;0.10;0.10;;;;;;;;;;5049112;28;20197;-74
2021/04/05 01:39:27;;;;;;;0.10;0.10;;;;;;;;;;5049117;28;20165;-73
2021/04/05 01:41:54;;;;;;;0.10;0.10;;;;;;;;;;5048920;28;20204;-74
2021/04/05 01:44:20;;;;;;;0.10;0.10;;;;;;;;;;5049104;28;20158;-74
2021/04/05 01:46:46;;;;;;;0.10;0.10;;;;;;;;;;5049049;28;20195;-73
2021/04/05 01:49:14;;;;;;;0.73;0.73;;;;;;;;;;5048722;28;20161;-73
2021/04/05 01:51:40;;;;;;;0.10;0.10;;;;;;;;;;5064123;28;20225;-73
2021/04/05 01:54:06;;;;;;;0.17;0.17;;;;;;;;;;5048973;28;20638;-73
2021/04/05 01:56:33;;;;;;;0.50;0.50;;;;;;;;;;5048836;28;20204;-73
2021/04/05 01:58:59;;;;;;;0.20;0.20;;;;;;;;;;5064330;28;20177;-73
2021/04/05 02:01:27;;;;;;;1.27;1.17;;;;;;;;;;5048820;28;20706;-74
2021/04/05 02:03:54;;;;;;;0.30;0.30;;;;;;;;;;5048918;28;20161;-74
2021/04/05 02:06:23;;;;;;;0.10;0.10;;;;;;;;;;5048783;28;20223;-73
2021/04/05 02:08:50;;;;;;;0.10;0.10;;;;;;;;;;5064212;28;20204;-74
2021/04/05 02:11:23;;;;;;;0.10;0.10;;;;;;;;;;5052650;28;20217;-74
2021/04/05 02:13:51;;;;;;;0.10;0.10;;;;;;;;;;5052638;28;20153;-74
2021/04/05 02:16:19;;;;;;;0.10;0.10;;;;;;;;;;5052447;28;20197;-73
2021/04/05 02:18:46;;;;;;;0.10;0.10;;;;;;;;;;5067804;28;20192;-73
2021/04/05 02:21:13;;;;;;;0.10;0.10;;;;;;;;;;5067938;28;20407;-74
2021/04/05 02:23:40;;;;;;;0.30;0.30;;;;;;;;;;5052307;28;20185;-74
2021/04/05 02:26:07;;;;;;;0.10;0.10;;;;;;;;;;5052302;28;20197;-74
2021/04/05 02:28:35;;;;;;;0.10;0.10;;;;;;;;;;5052210;28;20169;-74
2021/04/05 02:31:01;;;;;;;0.10;0.10;;;;;;;;;;5052231;28;20570;-74
2021/04/05 02:33:27;;;;;;;0.10;0.10;;;;;;;;;;5052333;28;20161;-74
2021/04/05 02:35:53;;;;;;;0.08;0.08;;;;;;;;;;5052194;28;20193;-73
2021/04/05 02:38:20;;;;;;;0.32;0.30;;;;;;;;;;5067518;28;20222;-73
2021/04/05 02:40:47;;;;;;;0.10;0.10;;;;;;;;;;5052124;28;20165;-73
2021/04/05 02:43:13;;;;;;;2.50;1.85;;;;;;;;;;5067331;28;20227;-73
2021/04/05 02:45:40;;;;;;;0.65;0.65;;;;;;;;;;5067217;28;20161;-73
2021/04/05 02:48:08;;;;;;;0.45;0.45;;;;;;;;;;5067318;28;20399;-73
2021/04/05 02:50:34;;;;;;;0.35;0.35;;;;;;;;;;5041938;28;20221;-73
2021/04/05 02:53:04;;;;;;;0.20;0.20;;;;;;;;;;5032002;28;20167;-73
2021/04/05 02:55:31;;;;;;;0.22;0.22;;;;;;;;;;5031921;28;20218;-73
2021/04/05 02:57:58;;;;;;;0.10;0.10;;;;;;;;;;5031901;28;20244;-73
2021/04/05 03:00:24;;;;;;;0.10;0.10;;;;;;;;;;5031742;28;20534;-73
2021/04/05 03:02:52;;;;;;;0.30;0.30;;;;;;;;;;5031827;28;20202;-73
2021/04/05 03:05:19;;;;;;;0.50;0.50;;;;;;;;;;5031692;28;20225;-73
2021/04/05 03:07:46;;;;;;;0.55;0.55;;;;;;;;;;5013916;28;20202;-73
2021/04/05 03:10:13;;;;;;;0.25;0.25;;;;;;;;;;5031622;28;20166;-73
2021/04/05 03:12:41;;;;;;;0.50;0.50;;;;;;;;;;5031561;28;20155;-73
2021/04/05 03:15:08;;;;;;;0.73;0.73;;;;;;;;;;5031395;28;20230;-74
2021/04/05 03:17:36;;;;;;;0.10;0.10;;;;;;;;;;5031251;28;20257;-74
2021/04/05 03:20:05;;;;;;;0.40;0.40;;;;;;;;;;5031374;28;20169;-73
2021/04/05 03:22:32;;;;;;;0.20;0.20;;;;;;;;;;5030456;28;20213;-73
2021/04/05 03:24:58;;;;;;;0.10;0.10;;;;;;;;;;5031365;28;20158;-74
2021/04/05 03:27:24;;;;;;;0.10;0.10;;;;;;;;;;5045410;28;20216;-73
2021/04/05 03:29:50;;;;;;;0.10;0.10;;;;;;;;;;5033288;28;20170;-73
2021/04/05 03:32:18;;;;;;;0.13;0.13;;;;;;;;;;5051155;28;20177;-73
2021/04/05 03:34:49;;;;;;;0.47;0.47;;;;;;;;;;5033260;28;20180;-73
2021/04/05 03:37:17;;;;;;;0.10;0.10;;;;;;;;;;5033205;28;20200;-73
2021/04/05 03:39:44;;;;;;;2.30;0.70;;;;;;;;;;5033051;28;20181;-74
2021/04/05 03:42:15;;;;;;;0.10;0.10;;;;;;;;;;5032960;28;20208;-74
2021/04/05 03:45:03;;;;;;;0.22;0.22;;;;;;;;;;5050724;28;20166;-73
2021/04/05 03:47:34;;;;;;;0.32;0.32;;;;;;;;;;5050405;28;20204;-74
2021/04/05 03:50:18;;;;;;;0.10;0.10;;;;;;;;;;5050357;28;20217;-74
2021/04/05 03:52:52;;;;;;;0.63;0.63;;;;;;;;;;5050693;28;20248;-74
2021/04/05 03:55:21;;;;;;;0.10;0.10;;;;;;;;;;5032719;28;20211;-74
2021/04/05 03:57:50;;;;;;;0.38;0.38;;;;;;;;;;5032889;28;20197;-74
2021/04/05 04:00:18;;;;;;;0.10;0.10;;;;;;;;;;5050489;28;20169;-74
2021/04/05 04:02:48;;;;;;;0.55;0.55;;;;;;;;;;5032555;28;20209;-73
2021/04/05 04:05:22;;;;;;;0.17;0.17;;;;;;;;;;5050401;28;20161;-74
2021/04/05 04:07:55;;;;;;;0.30;0.30;;;;;;;;;;5050164;28;20185;-74
2021/04/05 04:10:23;;;;;;;0.17;0.17;;;;;;;;;;5050388;28;20161;-74
2021/04/05 04:12:50;;;;;;;0.10;0.10;;;;;;;;;;5050207;28;20200;-74
2021/04/05 04:15:17;;;;;;;0.10;0.10;;;;;;;;;;5032560;28;20240;-74
2021/04/05 04:17:44;;;;;;;0.13;0.13;;;;;;;;;;5050114;28;20205;-73
2021/04/05 04:20:13;;;;;;;0.10;0.10;;;;;;;;;;5050201;28;20157;-74
2021/04/05 04:22:39;;;;;;;0.30;0.30;;;;;;;;;;5050006;28;20212;-74
2021/04/05 04:25:06;;;;;;;0.10;0.10;;;;;;;;;;5050057;28;20157;-74
2021/04/05 04:27:33;;;;;;;0.98;0.63;;;;;;;;;;5032264;28;20208;-74
2021/04/05 04:29:59;;;;;;;0.10;0.10;;;;;;;;;;5032107;28;20192;-73
2021/04/05 04:32:26;;;;;;;0.10;0.10;;;;;;;;;;5032002;28;20626;-73
2021/04/05 04:34:52;;;;;;;0.10;0.10;;;;;;;;;;5049885;28;20208;-74
2021/04/05 04:37:19;;;;;;;0.50;0.50;;;;;;;;;;5049550;28;20212;-74
2021/04/05 04:39:46;;;;;;;0.47;0.47;;;;;;;;;;5049809;28;20172;-74
2021/04/05 04:42:12;;;;;;;0.10;0.10;;;;;;;;;;5049646;28;20252;-74
2021/04/05 04:44:39;;;;;;;0.10;0.10;;;;;;;;;;5049728;28;20169;-74
2021/04/05 04:47:06;;;;;;;0.10;0.10;;;;;;;;;;5049538;28;20193;-73
2021/04/05 04:49:32;;;;;;;0.10;0.10;;;;;;;;;;5049410;28;20172;-73
2021/04/05 04:51:58;;;;;;;0.10;0.10;;;;;;;;;;5049502;28;20172;-74
2021/04/05 04:54:25;;;;;;;0.10;0.10;;;;;;;;;;5031887;28;20181;-73
2021/04/05 04:56:51;;;;;;;0.52;0.52;;;;;;;;;;5049461;28;20223;-74
2021/04/05 04:59:19;;;;;;;0.35;0.35;;;;;;;;;;5031687;28;20180;-74
2021/04/05 05:01:46;;;;;;;0.20;0.20;;;;;;;;;;5049363;28;20199;-74
2021/04/05 05:04:15;;;;;;;0.75;0.75;;;;;;;;;;5031771;28;20184;-74
2021/04/05 05:06:43;;;;;;;0.13;0.13;;;;;;;;;;5049360;28;20212;-74
2021/04/05 05:09:09;;;;;;;0.43;0.43;;;;;;;;;;5049306;28;20189;-74
2021/04/05 05:11:36;;;;;;;0.10;0.10;;;;;;;;;;5031557;28;20240;-74
2021/04/05 05:14:03;;;;;;;1.25;1.23;;;;;;;;;;5049424;28;20158;-74
2021/04/05 05:16:30;;;;;;;0.38;0.38;;;;;;;;;;5049241;28;20193;-74
2021/04/05 05:18:58;;;;;;;0.52;0.52;;;;;;;;;;5049121;28;20154;-74
2021/04/05 05:21:37;;;;;;;0.08;0.08;;;;;;;;;;5049212;28;20185;-74
2021/04/05 05:24:05;;;;;;;0.10;0.10;;;;;;;;;;5031373;28;20251;-74
2021/04/05 05:26:32;;;;;;;0.10;0.10;;;;;;;;;;5031371;28;20193;-74
2021/04/05 05:29:02;;;;;;;0.00;0.00;;;;;;;;;;5049115;28;20162;-73
2021/04/05 05:31:29;;;;;;;0.10;0.10;;;;;;;;;;5049058;28;20158;-74
2021/04/05 05:33:55;;;;;;;1.95;1.05;;;;;;;;;;5048970;28;20161;-74
2021/04/05 05:36:22;;;;;;;0.10;0.10;;;;;;;;;;5031246;28;20266;-74
2021/04/05 05:38:48;;;;;;;0.10;0.10;;;;;;;;;;5031179;28;20651;-74
2021/04/05 05:41:25;;;;;;;0.50;0.50;;;;;;;;;;5049003;28;20161;-74
2021/04/05 05:43:56;;;;;;;0.95;0.95;;;;;;;;;;5049107;28;20169;-73
2021/04/05 05:46:35;;;;;;;0.20;0.20;;;;;;;;;;5052748;28;20197;-74
2021/04/05 05:49:10;;;;;;;0.10;0.10;;;;;;;;;;5035337;28;20207;-74
2021/04/05 05:51:47;;;;;;;0.60;0.60;;;;;;;;;;5052744;28;20221;-74
2021/04/05 05:54:20;;;;;;;0.20;0.20;;;;;;;;;;5035181;28;20260;-73
2021/04/05 05:57:03;;;;;;;0.32;0.32;;;;;;;;;;5034926;28;20201;-73
2021/04/05 05:59:29;;;;;;;0.10;0.10;;;;;;;;;;5052694;28;20154;-74
2021/04/05 06:01:58;;;;;;;0.65;0.65;;;;;;;;;;5052675;28;20199;-74
2021/04/05 06:04:38;;;;;;;0.28;0.28;;;;;;;;;;5034829;28;20212;-74
2021/04/05 06:07:12;;;;;;;0.10;0.10;;;;;;;;;;5034665;28;20199;-73
2021/04/05 06:09:49;;;;;;;0.47;0.47;;;;;;;;;;5052430;28;20157;-73
2021/04/05 06:12:25;;;;;;;0.25;0.25;;;;;;;;;;5044097;28;20189;-73
2021/04/05 06:15:10;;;;;;;0.10;0.10;;;;;;;;;;5037898;28;20214;-74
2021/04/05 06:17:39;;;;;;;0.10;0.10;;;;;;;;;;5052288;28;20636;-74
2021/04/05 06:20:24;;;;;;;0.15;0.15;;;;;;;;;;5039250;28;20174;-74
2021/04/05 06:22:57;;;;;;;0.10;0.10;;;;;;;;;;5014849;28;20293;-73
2021/04/05 06:25:37;;;;;;;0.10;0.10;;;;;;;;;;5032465;28;20238;-73
2021/04/05 06:28:22;;;;;;;0.43;0.43;;;;;;;;;;5023163;28;20176;-73
2021/04/05 06:31:04;;;;;;;0.38;0.38;;;;;;;;;;5052152;28;20646;-73
2021/04/05 06:33:34;;;;;;;0.30;0.30;;;;;;;;;;5051973;28;20185;-73
2021/04/05 06:36:12;;;;;;;0.25;0.25;;;;;;;;;;5034134;28;20216;-73
2021/04/05 06:38:42;;;;;;;0.50;0.50;;;;;;;;;;5052024;28;20580;-73
2021/04/05 06:41:26;;;;;;;0.38;0.38;;;;;;;;;;5052144;28;20154;-73
2021/04/05 06:43:56;;;;;;;0.45;0.45;;;;;;;;;;5033877;28;20728;-73
2021/04/05 06:46:22;;;;;;;0.10;0.10;;;;;;;;;;5032654;28;20208;-71
2021/04/05 06:49:01;;;;;;;0.38;0.38;;;;;;;;;;5032148;28;20162;-73
2021/04/05 06:51:49;;;;;;;0.55;0.55;;;;;;;;;;5048607;28;20221;-73
2021/04/05 06:54:19;;;;;;;0.82;0.82;;;;;;;;;;5033978;28;20177;-73
2021/04/05 06:56:51;;;;;;;2.13;0.52;;;;;;;;;;5051452;28;20197;-73
2021/04/05 06:59:38;;;;;;;2.35;0.52;;;;;;;;;;5051619;28;20161;-72
2021/04/05 07:02:13;;;;;;;0.30;0.30;;;;;;;;;;5033651;28;20212;-72
2021/04/05 07:04:57;;;;;;;0.80;0.80;;;;;;;;;;5033786;28;20172;-73
2021/04/05 07:07:23;;;;;;;1.23;1.13;;;;;;;;;;5033524;28;20196;-73
2021/04/05 07:09:59;;;;;;;0.10;0.10;;;;;;;;;;5033435;28;20177;-73
2021/04/05 07:12:42;;;;;;;0.80;0.80;;;;;;;;;;5067127;28;20187;-73
2021/04/05 07:15:17;;;;;;;1.27;1.05;;;;;;;;;;5091427;28;20186;-74
2021/04/05 07:18:02;;;;;;;0.10;0.10;;;;;;;;;;5091276;28;20332;-73
2021/04/05 07:20:55;;;;;;;0.38;0.38;;;;;;;;;;5073074;28;20183;-73
2021/04/05 07:23:33;;;;;;;0.15;0.15;;;;;;;;;;5073090;28;20196;-74
2021/04/05 07:26:07;;;;;;;0.10;0.10;;;;;;;;;;5091243;28;20267;-73
2021/04/05 07:28:52;;;;;;;0.68;0.68;;;;;;;;;;5091261;28;20175;-73
2021/04/05 07:31:28;;;;;;;0.75;0.75;;;;;;;;;;5091035;28;20160;-74
2021/04/05 07:33:58;;;;;;;0.10;0.10;;;;;;;;;;5090973;28;20251;-74
2021/04/05 07:36:24;;;;;;;0.28;0.25;;;;;;;;;;5072800;28;20249;-74
2021/04/05 07:38:59;;;;;;;6.80;0.40;;;;;;;;;;5072817;28;20168;-74
2021/04/05 07:41:42;;;;;;;0.47;0.47;;;;;;;;;;5090848;28;20164;-74
2021/04/05 07:44:12;;;;;;;1.00;0.93;;;;;;;;;;5090633;28;20160;-74
2021/04/05 07:46:46;;;;;;;1.08;1.05;;;;;;;;;;5090322;28;20200;-74
2021/04/05 07:49:19;;;;;;;0.30;0.30;;;;;;;;;;5072639;28;20225;-74
2021/04/05 07:52:05;;;;;;;0.10;0.10;;;;;;;;;;5090378;28;20227;-74
2021/04/05 07:54:35;;;;;;;1.95;1.13;;;;;;;;;;5055514;28;20192;-74
2021/04/05 07:57:11;;;;;;;0.10;0.10;;;;;;;;;;5090493;28;20196;-74
2021/04/05 07:59:53;;;;;;;0.55;0.55;;;;;;;;;;5079975;28;20177;-75
2021/04/05 08:02:37;;;;;;;0.10;0.10;;;;;;;;;;5069936;28;20206;-75
2021/04/05 08:05:09;;;;;;;0.30;0.30;;;;;;;;;;5070079;28;20169;-75
2021/04/05 08:07:45;;;;;;;0.90;0.32;;;;;;;;;;5069532;28;20177;-74
2021/04/05 08:10:16;;;;;;;0.47;0.25;;;;;;;;;;5052119;28;20174;-75
2021/04/05 08:12:43;;;;;;;0.52;0.52;;;;;;;;;;5074673;28;20181;-75
2021/04/05 08:15:18;;;;;;;0.00;0.00;;;;;;;;;;5070057;28;20669;-74
2021/04/05 08:17:44;;;;;;;0.55;0.55;;;;;;;;;;5070023;28;20175;-74
2021/04/05 08:20:16;;;;;;;0.15;0.15;;;;;;;;;;5086266;28;20172;-74
2021/04/05 08:23:09;;;;;;;0.10;0.10;;;;;;;;;;5089874;28;20214;-75
2021/04/05 08:25:58;;;;;;;0.20;0.20;;;;;;;;;;5068808;28;20195;-75
2021/04/05 08:28:32;;;;;;;0.40;0.30;;;;;;;;;;5031729;28;20203;-79
2021/04/05 08:31:17;;;;;;;12.85;0.80;;;;;;;;;;5044598;28;20185;-72
2021/04/05 08:34:02;;;;;;;0.08;0.08;;;;;;;;;;5069312;28;20207;-73
2021/04/05 08:36:37;;;;;;;0.10;0.10;;;;;;;;;;5061753;28;20188;-74
2021/04/05 08:39:12;;;;;;;0.03;0.03;;;;;;;;;;5069411;28;20166;-72
2021/04/05 08:42:17;;;;;;;0.38;0.38;;;;;;;;;;5069510;28;20602;-74
2021/04/05 08:44:46;;;;;;;0.40;0.15;;;;;;;;;;4952950;29;20227;-75
2021/04/05 08:47:15;;;;;;;0.30;0.30;;;;;;;;;;4969415;29;20169;-75
2021/04/05 08:49:44;;;;;;;0.28;0.28;;;;;;;;;;4968870;29;20198;-75
2021/04/05 08:52:12;;;;;;;0.30;0.30;;;;;;;;;;4969362;29;20211;-74
2021/04/05 08:54:39;;;;;;;0.20;0.20;;;;;;;;;;4968927;29;20223;-75
2021/04/05 08:57:07;;;;;;;1.42;0.22;;;;;;;;;;4968898;29;20188;-75
2021/04/05 08:59:42;;;;;;;0.45;0.45;;;;;;;;;;4969056;29;20196;-73
2021/04/05 09:02:16;;;;;;;0.10;0.10;;;;;;;;;;4968771;29;20736;-74
2021/04/05 09:04:44;;;;;;;0.20;0.20;;;;;;;;;;4968754;29;20203;-75
2021/04/05 09:07:30;;;;;;;0.00;0.00;;;;;;;;;;4968777;29;20168;-74
2021/04/05 09:09:59;;;;;;;2.75;0.73;;;;;;;;;;4968994;29;20180;-74
2021/04/05 09:12:26;;;;;;;0.38;0.38;;;;;;;;;;4977592;28;20194;-75
2021/04/05 09:14:52;;;;;;;0.00;0.00;;;;;;;;;;5007152;28;20208;-75
2021/04/05 09:17:33;;;;;;;0.10;0.10;;;;;;;;;;5069159;28;20260;-74
2021/04/05 09:20:08;;;;;;;0.55;0.55;;;;;;;;;;5067954;28;20203;-74
2021/04/05 09:22:50;;;;;;;0.75;0.35;;;;;;;;;;5050990;28;20200;-75
2021/04/05 09:25:35;;;;;;;0.40;0.38;;;;;;;;;;5069010;28;20172;-74
2021/04/05 09:28:28;;;;;;;1.45;0.43;;;;;;;;;;5068972;28;20617;-75
2021/04/05 09:31:01;;;;;;;0.43;0.43;;;;;;;;;;5068840;28;20227;-75
2021/04/05 09:33:45;;;;;;;0.28;0.28;;;;;;;;;;5068840;28;20192;-74
2021/04/05 09:36:21;;;;;;;0.10;0.10;;;;;;;;;;5050862;28;20172;-77
2021/04/05 09:38:47;;;;;;;0.22;0.22;;;;;;;;;;5057139;28;20680;-78
2021/04/05 09:41:32;;;;;;;0.95;0.90;;;;;;;;;;5031122;28;20205;-75
2021/04/05 09:44:01;;;;;;;0.10;0.10;;;;;;;;;;5046527;28;20205;-76
2021/04/05 09:46:35;;;;;;;0.10;0.10;;;;;;;;;;5048455;28;20263;-76
2021/04/05 09:49:20;;;;;;;0.65;0.65;;;;;;;;;;5030507;28;20207;-75
2021/04/05 09:51:46;;;;;;;0.85;0.60;;;;;;;;;;5067649;28;20223;-77
2021/04/05 09:54:12;;;;;;;0.57;0.55;;;;;;;;;;5068621;28;20219;-72
2021/04/05 09:56:44;;;;;;;0.10;0.10;;;;;;;;;;5068316;28;20192;-72
2021/04/05 09:59:13;;;;;;;0.95;0.88;;;;;;;;;;5050319;28;20240;-72
2021/04/05 10:01:40;;;;;;;1.02;0.45;;;;;;;;;;5068120;28;20247;-73
2021/04/05 10:04:11;;;;;;;0.68;0.68;;;;;;;;;;5067971;28;20213;-73
2021/04/05 10:06:38;;;;;;;1.10;0.75;;;;;;;;;;5050192;28;20168;-73
2021/04/05 10:09:06;;;;;;;0.50;0.50;;;;;;;;;;5068203;28;20164;-73
2021/04/05 10:11:34;;;;;;;0.30;0.28;;;;;;;;;;5068088;28;20161;-73
2021/04/05 10:14:03;;;;;;;0.10;0.10;;;;;;;;;;5067695;28;20207;-74
2021/04/05 10:16:31;;;;;;;0.20;0.20;;;;;;;;;;5068509;28;20164;-75
2021/04/05 10:18:59;;;;;;;0.30;0.30;;;;;;;;;;5056788;28;20175;-74
2021/04/05 10:21:26;;;;;;;0.20;0.20;;;;;;;;;;5088509;28;20171;-74
2021/04/05 10:23:53;;;;;;;0.40;0.30;;;;;;;;;;5088544;28;20241;-74
2021/04/05 10:26:21;;;;;;;1.27;0.43;;;;;;;;;;5088530;28;20163;-74
2021/04/05 10:28:47;;;;;;;0.20;0.20;;;;;;;;;;5088535;28;20163;-74
2021/04/05 10:31:16;;;;;;;0.13;0.13;;;;;;;;;;5090601;28;20202;-74
2021/04/05 10:33:47;;;;;;;0.98;0.43;;;;;;;;;;5069273;28;20177;-73
2021/04/05 10:36:17;;;;;;;0.75;0.75;;;;;;;;;;5053281;28;20187;-73
2021/04/05 10:38:43;;;;;;;0.95;0.55;;;;;;;;;;5053701;28;20226;-73
2021/04/05 10:41:11;;;;;;;0.22;0.20;;;;;;;;;;5063389;28;20214;-73
2021/04/05 10:43:40;;;;;;;0.00;0.00;;;;;;;;;;5070482;28;20210;-73
2021/04/05 10:46:12;;;;;;;1.75;0.95;;;;;;;;;;5071854;28;20164;-73
2021/04/05 10:48:48;;;;;;;0.25;0.25;;;;;;;;;;5071238;28;20173;-72
2021/04/05 10:51:16;;;;;;;0.85;0.25;;;;;;;;;;5071138;28;20216;-73
2021/04/05 10:53:44;;;;;;;0.20;0.20;;;;;;;;;;5071237;28;20258;-73
2021/04/05 10:56:11;;;;;;;0.30;0.30;;;;;;;;;;5071091;28;20175;-73
2021/04/05 10:58:58;;;;;;;0.03;0.03;;;;;;;;;;5052833;28;20197;-73
2021/04/05 11:01:24;;;;;;;0.00;0.00;;;;;;;;;;5069401;28;20180;-73
2021/04/05 11:03:51;;;;;;;0.30;0.30;;;;;;;;;;5053155;28;20198;-73
2021/04/05 11:06:20;;;;;;;0.20;0.20;;;;;;;;;;5070882;28;20182;-73
2021/04/05 11:08:48;;;;;;;0.17;0.17;;;;;;;;;;5070983;28;20172;-73
2021/04/05 11:11:28;;;;;;;0.50;0.40;;;;;;;;;;5070898;28;20171;-73
2021/04/05 11:13:58;;;;;;;0.25;0.25;;;;;;;;;;5055154;28;20172;-73
2021/04/05 11:16:24;;;;;;;0.38;0.38;;;;;;;;;;5068491;28;20633;-73
2021/04/05 11:18:52;;;;;;;0.43;0.43;;;;;;;;;;5071145;28;20168;-73
2021/04/05 11:21:20;;;;;;;0.90;0.68;;;;;;;;;;5052565;28;20168;-73
2021/04/05 11:23:50;;;;;;;0.52;0.52;;;;;;;;;;5070706;28;20195;-73
2021/04/05 11:26:23;;;;;;;0.82;0.63;;;;;;;;;;5052667;28;20183;-74
2021/04/05 11:28:52;;;;;;;1.30;0.68;;;;;;;;;;5052652;28;20170;-73
2021/04/05 11:31:19;;;;;;;0.05;0.05;;;;;;;;;;5070769;28;20196;-73
2021/04/05 11:33:56;;;;;;;0.20;0.20;;;;;;;;;;5070747;28;20157;-73
2021/04/05 11:36:23;;;;;;;0.40;0.40;;;;;;;;;;5070978;28;20171;-74
2021/04/05 11:38:49;;;;;;;0.45;0.45;;;;;;;;;;5053014;28;20522;-74
2021/04/05 11:41:18;;;;;;;1.50;0.55;;;;;;;;;;5070288;28;20196;-74
2021/04/05 11:43:50;;;;;;;0.10;0.10;;;;;;;;;;5047897;28;20201;-73
2021/04/05 11:46:17;;;;;;;0.20;0.20;;;;;;;;;;5050455;28;20162;-72
2021/04/05 11:48:44;;;;;;;0.60;0.40;;;;;;;;;;5050684;28;20185;-72
2021/04/05 11:51:12;;;;;;;0.40;0.40;;;;;;;;;;5032471;28;20227;-73
2021/04/05 11:53:51;;;;;;;0.45;0.45;;;;;;;;;;5050627;28;20165;-73
2021/04/05 11:56:17;;;;;;;3.50;0.55;;;;;;;;;;5050582;28;20149;-72
2021/04/05 11:58:45;;;;;;;2.08;0.68;;;;;;;;;;5032692;28;20200;-72
2021/04/05 12:01:13;;;;;;;0.68;0.68;;;;;;;;;;5050400;28;20331;-72
2021/04/05 12:03:52;;;;;;;1.38;0.93;;;;;;;;;;5032592;28;20201;-77
2021/04/05 12:06:38;;;;;;;1.10;1.02;;;;;;;;;;5032402;28;20165;-77
2021/04/05 12:09:15;;;;;;;0.25;0.22;;;;;;;;;;5032557;28;20200;-76
2021/04/05 12:11:49;;;;;;;0.20;0.20;;;;;;;;;;5034932;28;20196;-76
2021/04/05 12:14:17;;;;;;;0.30;0.28;;;;;;;;;;5090175;28;20164;-76
2021/04/05 12:16:49;;;;;;;0.35;0.35;;;;;;;;;;5072297;28;20166;-77
2021/04/05 12:19:19;;;;;;;2.60;1.40;;;;;;;;;;5090743;28;20171;-76
2021/04/05 12:21:50;;;;;;;1.33;1.23;;;;;;;;;;5089883;28;20191;-76
2021/04/05 12:24:23;;;;;;;0.47;0.47;;;;;;;;;;5072145;28;20175;-76
2021/04/05 12:26:49;;;;;;;0.15;0.15;;;;;;;;;;5071686;28;20168;-76
2021/04/05 12:29:15;;;;;;;0.65;0.50;;;;;;;;;;5089879;28;20239;-76
2021/04/05 12:31:42;;;;;;;1.25;1.20;;;;;;;;;;5089940;28;20784;-76
2021/04/05 12:34:09;;;;;;;0.50;0.38;;;;;;;;;;5071882;28;20225;-75
2021/04/05 12:36:37;;;;;;;0.00;0.00;;;;;;;;;;5089491;28;20190;-75
2021/04/05 12:39:04;;;;;;;1.75;0.77;;;;;;;;;;5071948;28;20274;-76
2021/04/05 12:41:40;;;;;;;0.32;0.32;;;;;;;;;;5074585;28;20342;-73
2021/04/05 12:44:11;;;;;;;2.55;0.68;;;;;;;;;;5069387;28;20204;-73
2021/04/05 12:46:39;;;;;;;0.15;0.15;;;;;;;;;;5069654;28;20163;-72
2021/04/05 12:49:06;;;;;;;0.10;0.10;;;;;;;;;;5069461;28;20167;-73
2021/04/05 12:51:32;;;;;;;0.70;0.52;;;;;;;;;;5069020;28;20269;-73
2021/04/05 12:54:00;;;;;;;0.47;0.43;;;;;;;;;;5051385;28;20169;-73
2021/04/05 12:56:28;;;;;;;0.30;0.30;;;;;;;;;;5069382;28;20163;-73
2021/04/05 12:58:55;;;;;;;0.30;0.30;;;;;;;;;;5069331;28;20168;-73
2021/04/05 13:01:25;;;;;;;0.15;0.15;;;;;;;;;;5051489;28;20199;-73
2021/04/05 13:03:52;;;;;;;0.20;0.20;;;;;;;;;;5069262;28;20272;-74
2021/04/05 13:06:22;;;;;;;0.57;0.57;;;;;;;;;;5069265;28;20164;-73
2021/04/05 13:08:59;;;;;;;0.63;0.63;;;;;;;;;;5069214;28;20160;-73
2021/04/05 13:11:28;;;;;;;0.80;0.35;;;;;;;;;;5069026;28;20224;-73
2021/04/05 13:14:05;;;;;;;0.10;0.10;;;;;;;;;;5070581;28;20175;-73
2021/04/05 13:16:38;;;;;;;0.10;0.10;;;;;;;;;;5089163;28;20167;-74
2021/04/05 13:19:09;;;;;;;0.10;0.10;;;;;;;;;;5089058;28;20164;-73
2021/04/05 13:21:37;;;;;;;0.28;0.20;;;;;;;;;;5071035;28;20287;-73
2021/04/05 13:24:08;;;;;;;0.10;0.10;;;;;;;;;;5089094;28;20184;-73
2021/04/05 13:26:37;;;;;;;1.08;0.43;;;;;;;;;;5065349;28;20239;-73
2021/04/05 13:29:05;;;;;;;0.00;0.00;;;;;;;;;;5058157;28;20575;-73
2021/04/05 13:31:32;;;;;;;0.10;0.10;;;;;;;;;;5040024;28;20187;-72
2021/04/05 13:34:01;;;;;;;0.30;0.30;;;;;;;;;;5069008;28;20164;-72
2021/04/05 13:36:28;;;;;;;0.08;0.08;;;;;;;;;;5054010;28;20610;-73
2021/04/05 13:39:02;;;;;;;0.30;0.30;;;;;;;;;;5048687;28;20181;-73
2021/04/05 13:41:31;;;;;;;0.30;0.30;;;;;;;;;;5030653;28;20176;-73
2021/04/05 13:43:59;;;;;;;0.22;0.22;;;;;;;;;;5054090;28;20188;-73
2021/04/05 13:46:26;;;;;;;0.30;0.30;;;;;;;;;;5068230;28;20694;-73
2021/04/05 13:49:13;;;;;;;0.90;0.85;;;;;;;;;;5050197;28;20173;-73
2021/04/05 13:51:43;;;;;;;0.82;0.82;;;;;;;;;;5049715;28;20251;-73
2021/04/05 13:54:09;;;;;;;0.10;0.10;;;;;;;;;;5068173;28;20168;-73
2021/04/05 13:56:36;;;;;;;0.13;0.13;;;;;;;;;;5068069;28;20184;-73
2021/04/05 13:59:05;;;;;;;1.75;0.85;;;;;;;;;;5068134;28;20169;-73
2021/04/05 14:01:33;;;;;;;0.25;0.25;;;;;;;;;;5057865;28;20173;-73
2021/04/05 14:04:02;;;;;;;0.32;0.32;;;;;;;;;;5047995;28;20201;-73
2021/04/05 14:06:38;;;;;;;0.00;0.00;;;;;;;;;;5050595;28;20162;-72
2021/04/05 14:09:11;;;;;;;1.30;0.30;;;;;;;;;;5051839;28;20165;-73
2021/04/05 14:11:42;;;;;;;0.03;0.03;;;;;;;;;;5034676;28;20166;-73
2021/04/05 14:14:08;;;;;;;0.00;0.00;;;;;;;;;;5072785;28;20188;-69
2021/04/05 14:16:38;;;;;;;0.98;0.98;;;;;;;;;;5073692;28;20183;-69
2021/04/05 14:19:11;;;;;;;0.00;0.00;;;;;;;;;;5073653;28;20191;-70
2021/04/05 14:21:38;;;;;;;0.10;0.10;;;;;;;;;;5091648;28;20184;-69
2021/04/05 14:24:09;;;;;;;0.17;0.17;;;;;;;;;;5073600;28;20695;-70
2021/04/05 14:26:42;;;;;;;1.10;0.63;;;;;;;;;;5073654;28;20168;-69
2021/04/05 14:29:10;;;;;;;0.95;0.95;;;;;;;;;;5051280;28;20176;-69
2021/04/05 14:31:40;;;;;;;0.20;0.20;;;;;;;;;;5033436;28;20192;-69
2021/04/05 14:34:13;;;;;;;0.43;0.43;;;;;;;;;;5051296;28;20177;-69
2021/04/05 14:36:41;;;;;;;0.10;0.10;;;;;;;;;;5088248;28;20235;-69
2021/04/05 14:39:22;;;;;;;0.08;0.08;;;;;;;;;;5091372;28;20164;-69
2021/04/05 14:41:54;;;;;;;0.10;0.10;;;;;;;;;;5091222;28;20188;-69
2021/04/05 14:44:21;;;;;;;1.15;1.10;;;;;;;;;;5090844;28;20175;-69
2021/04/05 14:46:48;;;;;;;0.10;0.10;;;;;;;;;;5091302;28;20556;-69
2021/04/05 14:49:16;;;;;;;0.15;0.15;;;;;;;;;;5073611;28;20179;-69
2021/04/05 14:51:44;;;;;;;0.20;0.20;;;;;;;;;;5073069;28;20228;-69
2021/04/05 14:54:11;;;;;;;0.10;0.10;;;;;;;;;;5091672;28;20164;-71
2021/04/05 14:56:38;;;;;;;0.10;0.10;;;;;;;;;;5091700;28;20223;-71
2021/04/05 14:59:05;;;;;;;0.00;0.00;;;;;;;;;;5073324;28;20168;-70
2021/04/05 15:01:33;;;;;;;2.38;0.20;;;;;;;;;;5091298;28;20164;-70
2021/04/05 15:03:59;;;;;;;0.20;0.20;;;;;;;;;;5091387;28;20192;-70